Flight Track Log - Related Links

Times and Time Zones

All times are in EDT time to prevent confusion due to time zone crossing. See the N97FG flight status page for this flight to view local times or setup timezone preferences in your user account.

Time Position Orientation Groundspeed Altitude Reporting Facility
EDT Latitude Longitude Course Direction KTS km/h meters Rate Location/Type
Tue 15:30:53 26.3622 -99.3864 36° Northeast 437 810 9,114  Level Houston Center
Tue 15:31:55 26.4572 -99.2983 40° Northeast 444 822 9,418 325 Climbing Houston Center
Tue 15:32:57 26.5736 -99.1964 38° Northeast 444 822 9,784 322 Climbing Houston Center
Tue 15:34:00 26.6694 -99.1061 40° Northeast 450 834 10,089 293 Climbing Houston Center
Tue 15:35:02 26.7667 -99.0169 39° Northeast 452 837 10,394 295 Climbing Houston Center
Tue 15:36:04 26.8631 -98.9281 39° Northeast 452 837 10,698 280 Climbing Houston Center
Tue 15:37:06 26.9589 -98.8381 40° Northeast 451 835 10,973 310 Climbing Houston Center
Tue 15:38:08 27.0731 -98.7319 40° Northeast 449 832 11,339 325 Climbing Houston Center
Tue 15:39:10 27.1675 -98.6428 40° Northeast 447 827 11,643 295 Climbing Houston Center
Tue 15:40:12 27.2611 -98.5564 39° Northeast 442 819 11,948 295 Climbing Houston Center
Tue 15:41:14 27.3528 -98.4692 40° Northeast 438 811 12,253 249 Climbing Houston Center
Tue 15:42:17 27.4439 -98.3839 40° Northeast 433 801 12,466 117 Climbing Houston Center
Tue 15:43:19 27.5539 -98.2786 40° Northeast 434 803 12,497 15 Climbing Houston Center
Tue 15:44:21 27.6503 -98.1886 40° Northeast 446 826 12,497  Level Houston Center
Tue 15:45:23 27.7492 -98.0961 40° Northeast 460 851 12,497  Level Houston Center
Tue 15:46:25 27.8503 -98.0017 40° Northeast 471 872 12,497  Level Houston Center
Tue 15:47:28 27.9494 -97.9044 41° Northeast 473 875 12,497  Level Houston Center
Tue 15:48:29 28.0722 -97.7892 40° Northeast 477 884 12,497  Level Houston Center
Tue 15:49:32 28.1631 -97.7044 39° Northeast 477 884 12,497  Level Houston Center
Tue 15:50:34 28.2842 -97.5875 40° Northeast 476 882 12,497  Level Houston Center
Tue 15:51:36 28.3858 -97.4906 40° Northeast 475 880 12,497 -15 Level Houston Center
Tue 15:52:38 28.4872 -97.3925 40° Northeast 479 887 12,466  Descending Houston Center
Tue 15:53:40 28.5889 -97.2958 40° Northeast 477 884 12,497 15 Climbing Houston Center
Tue 15:54:42 28.6911 -97.1975 40° Northeast 480 888 12,497 -15 Level Houston Center
Tue 15:55:44 28.7908 -97.0994 41° Northeast 478 885 12,466  Descending Houston Center
Tue 15:56:46 28.9133 -96.9808 40° Northeast 481 892 12,497 15 Climbing Houston Center
Tue 15:57:49 29.0139 -96.8817 41° Northeast 481 892 12,497  Level Houston Center
Tue 15:58:51 29.1128 -96.7831 41° Northeast 479 887 12,497  Level Houston Center
Tue 15:59:53 29.2117 -96.6847 41° Northeast 480 888 12,497  Level Houston Center
Tue 16:00:55 29.3314 -96.5689 40° Northeast 478 885 12,497  Level Houston Center
Tue 16:01:57 29.4306 -96.4717 40° Northeast 474 877 12,497  Level Houston Center
Tue 16:02:59 29.5311 -96.3694 41° Northeast 481 892 12,497  Level Houston Center
Tue 16:04:01 29.6317 -96.2708 40° Northeast 479 887 12,497  Level Houston Center
Tue 16:05:04 29.7311 -96.1717 41° Northeast 476 882 12,497  Level Houston Center
Tue 16:06:06 29.8492 -96.0536 41° Northeast 471 872 12,497  Level Houston Center
Tue 16:07:08 29.9522 -95.9522 40° Northeast 477 884 12,497  Level Houston Center
Tue 16:08:10 30.0525 -95.8517 41° Northeast 477 884 12,497  Level Houston Center
Tue 16:09:12 30.1522 -95.7511 41° Northeast 474 877 12,497  Level Houston Center
Tue 16:10:14 30.2525 -95.6519 40° Northeast 473 875 12,497  Level Houston Center
Tue 16:11:16 30.3506 -95.5517 41° Northeast 472 874 12,497  Level Houston Center
Tue 16:12:18 30.4500 -95.4489 42° Northeast 476 882 12,497  Level Houston Center
Tue 16:13:21 30.5669 -95.3306 41° Northeast 471 872 12,497  Level Houston Center
Tue 16:14:23 30.6664 -95.2278 42° Northeast 474 877 12,497  Level Houston Center
Tue 16:15:25 30.7647 -95.1264 42° Northeast 472 874 12,497  Level Houston Center
Tue 16:16:27 30.8642 -95.0258 41° Northeast 472 874 12,497  Level Houston Center
Tue 16:17:29 30.9831 -94.9028 42° Northeast 476 882 12,497  Level Houston Center
Tue 16:18:04 31.0247 -94.8608 41° Northeast 476 882 12,497  Level Fort Worth Center
Tue 16:19:04 31.1331 -94.7439 43° Northeast 476 882 12,497  Level Fort Worth Center
Tue 16:20:04 31.2461 -94.6628 32° Northeast 476 882 12,497  Level Fort Worth Center
Tue 16:21:04 31.3569 -94.5867 30° Northeast 471 872 12,497  Level Fort Worth Center
Tue 16:22:04 31.4719 -94.5028 32° Northeast 470 871 12,497  Level Fort Worth Center
Tue 16:23:04 31.5831 -94.4261 30° Northeast 470 871 12,497  Level Fort Worth Center
Tue 16:24:04 31.6919 -94.3494 31° Northeast 459 850 12,497  Level Fort Worth Center
Tue 16:25:04 31.8047 -94.2722 30° Northeast 459 850 12,497  Level Fort Worth Center
Tue 16:26:04 31.9175 -94.1925 31° Northeast 464 859 12,497  Level Fort Worth Center
Tue 16:27:04 32.0283 -94.1150 31° Northeast 464 859 12,497  Level Fort Worth Center
Tue 16:28:04 32.1408 -94.0350 31° Northeast 464 859 12,497  Level Fort Worth Center
Tue 16:29:04 32.2514 -93.9497 33° Northeast 464 859 12,497  Level Fort Worth Center
Tue 16:30:04 32.3619 -93.8719 31° Northeast 464 859 12,497  Level Fort Worth Center
Tue 16:31:04 32.4725 -93.7936 31° Northeast 464 859 12,497  Level Fort Worth Center
Tue 16:32:04 32.5850 -93.7153 30° Northeast 464 859 12,497  Level Fort Worth Center
Tue 16:33:04 32.6972 -93.6342 31° Northeast 464 859 12,497  Level Fort Worth Center
Tue 16:34:04 32.8097 -93.5553 31° Northeast 464 859 12,497  Level Fort Worth Center
Tue 16:35:04 32.9219 -93.4736 31° Northeast 464 859 12,497  Level Fort Worth Center
Tue 16:36:04 33.0322 -93.3944 31° Northeast 464 859 12,497  Level Fort Worth Center
Tue 16:37:04 33.1464 -93.3122 31° Northeast 464 859 12,497  Level Fort Worth Center
Tue 16:38:04 33.2564 -93.2328 31° Northeast 464 859 12,497  Level Fort Worth Center
Tue 16:39:04 33.3686 -93.1503 32° Northeast 464 859 12,497  Level Fort Worth Center
Tue 16:40:04 33.4806 -93.0703 31° Northeast 464 859 12,497  Level Fort Worth Center
Tue 16:40:44 33.5433 -93.0264 30° Northeast 468 867 12,497  Level Memphis Center
Tue 16:41:44 33.6556 -92.9425 32° Northeast 463 858 12,497  Level Memphis Center
Tue 16:42:44 33.7700 -92.8611 31° Northeast 463 858 12,497  Level Memphis Center
Tue 16:43:44 33.8822 -92.7817 30° Northeast 463 858 12,497  Level Memphis Center
Tue 16:44:44 33.9944 -92.6972 32° Northeast 463 858 12,497  Level Memphis Center
Tue 16:45:44 34.1003 -92.6147 33° Northeast 463 858 12,497  Level Memphis Center
Tue 16:46:44 34.2122 -92.5322 31° Northeast 463 858 12,497  Level Memphis Center
Tue 16:47:44 34.3264 -92.4447 32° Northeast 463 858 12,497  Level Memphis Center
Tue 16:48:44 34.4383 -92.3592 32° Northeast 468 867 12,497  Level Memphis Center
Tue 16:49:44 34.5483 -92.2761 32° Northeast 468 867 12,497  Level Memphis Center
Tue 16:50:44 34.6581 -92.1928 32° Northeast 468 867 12,497  Level Memphis Center
Tue 16:51:44 34.7533 -92.0836 43° Northeast 468 867 12,497  Level Memphis Center
Tue 16:52:44 34.8489 -91.9614 46° Northeast 468 867 12,497  Level Memphis Center
Tue 16:53:44 34.9403 -91.8417 47° Northeast 473 875 12,497  Level Memphis Center
Tue 16:54:44 35.0292 -91.7264 47° Northeast 473 875 12,497  Level Memphis Center
Tue 16:55:44 35.1222 -91.6086 46° Northeast 473 875 12,497  Level Memphis Center
Tue 16:56:44 35.2150 -91.4881 47° Northeast 478 885 12,497  Level Memphis Center
Tue 16:57:44 35.3100 -91.3672 46° Northeast 478 885 12,497  Level Memphis Center
Tue 16:58:44 35.4028 -91.2461 47° Northeast 478 885 12,497  Level Memphis Center
Tue 16:59:44 35.4911 -91.1322 46° Northeast 472 874 12,497  Level Memphis Center
Tue 17:00:44 35.5856 -91.0106 46° Northeast 477 884 12,497  Level Memphis Center
Tue 17:01:44 35.6758 -90.8936 46° Northeast 477 884 12,497  Level Memphis Center
Tue 17:02:44 35.7617 -90.7714 49° Northeast 472 874 12,497  Level Memphis Center
Tue 17:03:44 35.8497 -90.6542 47° Northeast 472 874 12,497  Level Memphis Center
Tue 17:04:44 35.9394 -90.5339 47° Northeast 472 874 12,497  Level Memphis Center
Tue 17:05:44 36.0336 -90.4108 47° Northeast 472 874 12,497  Level Memphis Center
Tue 17:06:44 36.1211 -90.2953 47° Northeast 472 874 12,497  Level Memphis Center
Tue 17:07:44 36.2064 -90.1794 48° Northeast 466 863 12,497  Level Memphis Center
Tue 17:08:44 36.2897 -90.0661 48° Northeast 449 832 12,497  Level Memphis Center
Tue 17:09:44 36.3769 -89.9497 47° Northeast 444 822 12,497  Level Memphis Center
Tue 17:10:44 36.4722 -89.8228 47° Northeast 449 832 12,497  Level Memphis Center
Tue 17:11:44 36.5614 -89.7008 48° Northeast 455 843 12,497  Level Memphis Center
Tue 17:12:44 36.6503 -89.5786 48° Northeast 460 851 12,497  Level Memphis Center
Tue 17:13:44 36.7411 -89.4558 47° Northeast 467 864 12,497  Level Memphis Center
Tue 17:14:44 36.8256 -89.3358 49° Northeast 467 864 12,497  Level Memphis Center
Tue 17:15:44 36.9142 -89.2153 47° Northeast 462 856 12,497  Level Memphis Center
Tue 17:16:44 36.9964 -89.0972 49° Northeast 462 856 12,497  Level Memphis Center
Tue 17:17:44 37.0825 -88.9789 48° Northeast 462 856 12,497  Level Memphis Center
Tue 17:18:44 37.1667 -88.8603 48° Northeast 462 856 12,497  Level Memphis Center
Tue 17:19:44 37.2525 -88.7386 48° Northeast 462 856 12,497  Level Memphis Center
Tue 17:20:44 37.3386 -88.6222 47° Northeast 462 856 12,497  Level Memphis Center
Tue 17:22:42 37.4900 -88.3956 50° Northeast 465 861 12,497  Level Indianapolis Center
Tue 17:23:44 37.5758 -88.2728 49° Northeast 465 861 12,497  Level Indianapolis Center
Tue 17:24:46 37.6744 -88.1308 49° Northeast 461 855 12,497  Level Indianapolis Center
Tue 17:25:48 37.7606 -88.0064 49° Northeast 464 859 12,497  Level Indianapolis Center
Tue 17:26:50 37.8475 -87.8806 49° Northeast 461 855 12,497  Level Indianapolis Center
Tue 17:27:52 37.9428 -87.7706 42° Northeast 465 861 12,497  Level Indianapolis Center
Tue 17:28:54 38.0550 -87.6878 30° Northeast 462 856 12,497  Level Indianapolis Center
Tue 17:29:56 38.1661 -87.6053 30° Northeast 461 855 12,497  Level Indianapolis Center
Tue 17:30:58 38.2803 -87.5231 29° Northeast 465 861 12,497  Level Indianapolis Center
Tue 17:32:00 38.3947 -87.4383 30° Northeast 467 864 12,497  Level Indianapolis Center
Tue 17:33:02 38.5092 -87.3528 30° Northeast 468 867 12,497  Level Indianapolis Center
Tue 17:34:04 38.6239 -87.2681 30° Northeast 468 867 12,497  Level Indianapolis Center
Tue 17:35:06 38.7611 -87.1658 30° Northeast 471 872 12,497  Level Indianapolis Center
Tue 17:36:08 38.8742 -87.0800 31° Northeast 468 867 12,497  Level Indianapolis Center
Tue 17:37:10 38.9881 -86.9961 30° Northeast 469 869 12,497  Level Indianapolis Center
Tue 17:38:12 39.1025 -86.9106 30° Northeast 472 874 12,497 -148 Level Indianapolis Center
Tue 17:39:14 39.2058 -86.8325 30° Northeast 463 858 12,192 -325 Descending Indianapolis Center
Tue 17:40:16 39.3317 -86.7375 30° Northeast 438 811 11,826 -325 Descending Indianapolis Center
Tue 17:41:18 39.4358 -86.6569 31° Northeast 437 810 11,521 -265 Descending Indianapolis Center
Tue 17:42:20 39.5453 -86.5744 30° Northeast 453 838 11,278 -236 Descending Indianapolis Center
Tue 17:43:22 39.6553 -86.4894 31° Northeast 457 847 11,034 -310 Descending Indianapolis Center
Tue 17:44:24 39.7706 -86.4003 31° Northeast 445 824 10,638 -398 Descending Indianapolis Center
Tue 17:45:26 39.8703 -86.3233 31° Northeast 436 808 10,211 -358 Descending Indianapolis Center
Tue 17:46:01 39.9331 -86.2739 31° Northeast 437 810 10,058 -93 Descending Chicago Center
Tue 17:47:04 40.0231 -86.1733 41° Northeast 428 793 10,058  Level Chicago Center
Tue 17:48:06 40.1189 -86.0706 39° Northeast 444 822 10,058  Level Chicago Center
Tue 17:49:08 40.2211 -85.9675 38° Northeast 459 850 10,058 -192 Level Chicago Center
Tue 17:50:10 40.3392 -85.8481 38° Northeast 453 838 9,662 -354 Descending Chicago Center
Tue 17:51:12 40.4347 -85.7500 38° Northeast 440 814 9,327 -325 Descending Chicago Center
Tue 17:52:14 40.5311 -85.6511 38° Northeast 440 814 8,992 -325 Descending Chicago Center
Tue 17:53:16 40.6333 -85.5472 38° Northeast 458 848 8,656 -428 Descending Chicago Center
Tue 17:54:18 40.7478 -85.4294 38° Northeast 479 887 8,108 -614 Descending Chicago Center
Tue 17:55:21 40.8433 -85.3269 39° Northeast 451 835 7,376 -575 Descending Chicago Center
Tue 17:56:22 40.9394 -85.2261 38° Northeast 444 822 6,919 -443 Descending Chicago Center
Tue 17:57:25 41.0825 -85.1464 23° Northeast 465 861 6,462 -249 Descending Chicago Center
Tue 17:58:27 41.2061 -85.1003 16° North 465 861 6,401 -44 Descending Chicago Center
Tue 17:59:29 41.3247 -85.0517 17° North 455 843 6,370 -280 Descending Chicago Center
Tue 18:00:31 41.4144 -84.9461 41° Northeast 436 808 5,822 -634 Descending Chicago Center
Tue 18:01:33 41.4944 -84.8344 46° Northeast 424 785 5,060 -811 Descending Chicago Center
Tue 18:02:35 41.5900 -84.6972 47° Northeast 423 784 4,145 -737 Descending Chicago Center
Tue 18:03:37 41.6681 -84.5839 47° Northeast 421 779 3,536 -501 Descending Chicago Center
Tue 18:04:39 41.7444 -84.4736 47° Northeast 412 763 3,109 -236 Descending Chicago Center
Tue 18:05:41 41.8200 -84.3650 47° Northeast 404 748 3,048 -45 Descending Chicago Center
Tue 18:06:00 41.8533 -84.3189 46° Northeast 404 748 3,048  Level Cleveland Center
Tue 18:06:45 41.8992 -84.2492 49° Northeast 394 729 3,048  Level Cleveland Center
Tue 18:07:32 41.9514 -84.1794 45° Northeast 270 501 3,048 -76 Level Cleveland Center
Tue 18:08:45 42.0142 -84.1103 39° Northeast 292 541 2,896 -283 Descending Cleveland Center
Tue 18:09:35 42.0839 -84.0806 18° North 284 526 2,469 -494 Descending Cleveland Center
Tue 18:10:36 42.1622 -84.0428 20° North 280 518 1,981 -450 Descending Cleveland Center
Tue 18:11:37 42.2339 -84.0103 19° North 260 481 1,554 -420 Descending Cleveland Center

Login

Don't have an account? Register now (free) for customized features, flight alerts, and more!